createdAt,value
2022-08-03T00:01:52.890Z,64.46
2022-08-03T00:04:19.623Z,63.99
2022-08-03T00:06:46.249Z,63.89
2022-08-03T00:09:12.897Z,62.98
2022-08-03T00:11:39.786Z,62.70
2022-08-03T00:14:07.399Z,62.14
2022-08-03T00:16:34.597Z,62.63
2022-08-03T00:19:03.376Z,63.17
2022-08-03T00:21:30.213Z,63.22
2022-08-03T00:23:57.048Z,64.25
2022-08-03T00:26:23.781Z,64.94
2022-08-03T00:28:50.968Z,64.72
2022-08-03T00:31:23.047Z,65.31
2022-08-03T00:34:04.927Z,64.98
2022-08-03T00:36:32.883Z,64.14
2022-08-03T00:38:59.558Z,64.43
2022-08-03T00:41:26.285Z,65.65
2022-08-03T00:43:53.053Z,66.12
2022-08-03T00:46:22.191Z,65.88
2022-08-03T00:48:51.018Z,66.05
2022-08-03T00:51:20.779Z,65.86
2022-08-03T00:53:48.174Z,65.72
2022-08-03T00:56:16.590Z,65.74
2022-08-03T00:58:47.144Z,66.78
2022-08-03T01:01:14.977Z,66.46
2022-08-03T01:03:42.161Z,66.27
2022-08-03T01:06:25.682Z,65.34
2022-08-03T01:09:30.797Z,63.95
2022-08-03T01:12:29.699Z,65.19
2022-08-03T01:15:04.903Z,65.09
2022-08-03T01:17:49.320Z,65.64
2022-08-03T01:20:20.799Z,66.12
2022-08-03T01:22:53.202Z,65.89
2022-08-03T01:25:40.339Z,63.99
2022-08-03T01:28:58.327Z,65.03
2022-08-03T01:32:58.564Z,66.18
2022-08-03T01:34:59.681Z,65.30
2022-08-03T01:37:38.827Z,64.42
2022-08-03T01:40:09.252Z,65.08
2022-08-03T01:42:38.572Z,65.47
2022-08-03T01:45:09.106Z,66.06
2022-08-03T01:47:36.983Z,66.19
2022-08-03T01:50:07.384Z,67.41
2022-08-03T01:52:37.520Z,67.84
2022-08-03T01:55:07.319Z,66.52
2022-08-03T01:58:06.295Z,66.71
2022-08-03T02:00:26.192Z,66.83
2022-08-03T02:02:56.052Z,67.22
2022-08-03T02:05:24.703Z,67.97
2022-08-03T02:07:52.888Z,67.55
2022-08-03T02:10:34.689Z,67.89
2022-08-03T02:13:07.147Z,67.32
2022-08-03T02:15:37.117Z,66.76
2022-08-03T02:18:08.762Z,67.51
2022-08-03T02:20:38.955Z,67.02
2022-08-03T02:23:07.175Z,67.34
2022-08-03T02:25:44.530Z,66.82
2022-08-03T02:28:18.240Z,66.41
2022-08-03T02:30:51.893Z,65.68
2022-08-03T02:33:34.243Z,66.09
2022-08-03T02:36:03.028Z,66.67
2022-08-03T02:38:36.642Z,67.43
2022-08-03T02:41:12.380Z,68.16
2022-08-03T02:44:05.748Z,69.06
2022-08-03T02:46:38.569Z,69.71
2022-08-03T02:49:40.652Z,70.26
2022-08-03T02:51:56.766Z,70.06
2022-08-03T02:54:26.847Z,70.39
2022-08-03T02:56:57.780Z,70.46
2022-08-03T02:59:26.304Z,70.70
2022-08-03T03:01:55.047Z,71.00
2022-08-03T03:04:22.753Z,70.61
2022-08-03T03:06:55.701Z,70.23
2022-08-03T03:09:22.758Z,70.45
2022-08-03T03:11:51.465Z,69.53
2022-08-03T03:14:19.450Z,70.26
2022-08-03T03:17:02.653Z,71.07
2022-08-03T03:19:32.873Z,71.60
2022-08-03T03:22:06.812Z,70.34
2022-08-03T03:24:36.397Z,70.52
2022-08-03T03:27:05.164Z,70.55
2022-08-03T03:29:39.240Z,70.01
2022-08-03T03:32:09.168Z,69.95
2022-08-03T03:34:37.521Z,70.19
2022-08-03T03:37:05.392Z,69.93
2022-08-03T03:39:32.699Z,70.32
2022-08-03T03:42:01.095Z,70.05
2022-08-03T03:44:31.532Z,69.61
2022-08-03T03:46:59.088Z,69.94
2022-08-03T03:49:27.007Z,69.74
2022-08-03T03:51:55.420Z,69.81
2022-08-03T03:54:22.434Z,69.68
2022-08-03T03:56:52.462Z,69.05
2022-08-03T03:59:19.192Z,69.11
2022-08-03T04:01:46.021Z,69.13
2022-08-03T04:04:31.277Z,69.82
2022-08-03T04:07:16.699Z,70.17
2022-08-03T04:10:14.194Z,70.45
2022-08-03T04:12:50.615Z,69.81
2022-08-03T04:15:23.081Z,70.58
2022-08-03T04:17:56.591Z,70.75
2022-08-03T04:20:29.709Z,70.50
2022-08-03T04:23:00.369Z,69.93
2022-08-03T04:25:32.777Z,69.64
2022-08-03T04:28:29.275Z,69.61
2022-08-03T04:30:50.918Z,68.86
2022-08-03T04:33:21.620Z,69.94
2022-08-03T04:36:01.087Z,71.34
2022-08-03T04:38:33.050Z,71.39
2022-08-03T04:41:01.505Z,71.05
2022-08-03T04:43:34.543Z,71.14
2022-08-03T04:46:02.968Z,70.54
2022-08-03T04:48:30.183Z,70.33
2022-08-03T04:50:57.626Z,71.34
2022-08-03T04:53:24.383Z,71.30
2022-08-03T04:55:51.015Z,71.38
2022-08-03T04:58:17.654Z,70.91
2022-08-03T05:00:45.725Z,71.10
2022-08-03T05:03:19.461Z,70.67
2022-08-03T05:06:01.872Z,70.37
2022-08-03T05:08:45.984Z,70.19
2022-08-03T05:11:13.819Z,70.51
2022-08-03T05:13:40.589Z,70.20
2022-08-03T05:16:07.204Z,70.31
2022-08-03T05:18:33.957Z,69.44
2022-08-03T05:21:00.626Z,70.13
2022-08-03T05:23:27.543Z,70.04
2022-08-03T05:25:54.197Z,69.68
2022-08-03T05:28:20.830Z,68.87
2022-08-03T05:30:47.570Z,68.96
2022-08-03T05:33:14.888Z,69.17
2022-08-03T05:35:57.846Z,69.19
2022-08-03T05:38:34.768Z,68.21
2022-08-03T05:41:22.857Z,67.61
2022-08-03T05:43:55.147Z,68.72
2022-08-03T05:46:24.986Z,67.16
2022-08-03T05:48:51.858Z,66.00
2022-08-03T05:51:19.075Z,66.94
2022-08-03T05:53:46.209Z,66.90
2022-08-03T05:56:15.985Z,66.13
2022-08-03T05:58:46.386Z,65.59
2022-08-03T06:01:13.544Z,63.48
2022-08-03T06:03:40.762Z,63.25
2022-08-03T06:06:07.471Z,63.85
2022-08-03T06:08:35.226Z,65.27
2022-08-03T06:11:02.136Z,64.38
2022-08-03T06:13:29.392Z,63.63
2022-08-03T06:15:56.106Z,61.05
2022-08-03T06:18:24.518Z,62.77
2022-08-03T06:20:52.458Z,60.32
2022-08-03T06:23:19.597Z,60.00
2022-08-03T06:25:47.698Z,60.56
2022-08-03T06:31:02.297Z,59.49
2022-08-03T06:34:30.988Z,60.67
2022-08-03T06:36:16.451Z,58.17
2022-08-03T06:38:43.121Z,57.65
2022-08-03T06:41:09.757Z,60.05
2022-08-03T06:43:38.017Z,56.39
2022-08-03T06:46:26.779Z,56.02
2022-08-03T06:48:53.496Z,57.34
2022-08-03T06:51:20.240Z,57.10
2022-08-03T06:53:46.866Z,56.96
2022-08-03T06:56:13.577Z,54.71
2022-08-03T06:58:40.407Z,55.61
2022-08-03T07:01:07.084Z,54.89
2022-08-03T07:03:33.848Z,58.07
2022-08-03T07:06:04.159Z,56.17
2022-08-03T07:08:33.876Z,53.64
2022-08-03T07:11:01.959Z,53.64
2022-08-03T07:13:28.925Z,54.83
2022-08-03T07:15:56.596Z,54.48
2022-08-03T07:18:29.710Z,54.41
2022-08-03T07:20:58.094Z,52.81
2022-08-03T07:23:27.212Z,55.47
2022-08-03T07:25:53.900Z,52.91
2022-08-03T07:28:23.216Z,53.83
2022-08-03T07:30:50.094Z,51.73
2022-08-03T07:33:16.875Z,53.82
2022-08-03T07:35:45.941Z,52.49
2022-08-03T07:38:12.892Z,51.82
2022-08-03T07:40:44.426Z,52.81
2022-08-03T07:43:12.962Z,53.12
2022-08-03T07:45:42.008Z,53.14
2022-08-03T07:48:12.092Z,49.98
2022-08-03T07:50:39.682Z,51.39
2022-08-03T07:53:08.786Z,51.18
2022-08-03T07:55:42.716Z,49.71
2022-08-03T07:58:19.185Z,51.51
2022-08-03T08:00:53.465Z,50.48
2022-08-03T08:03:22.036Z,49.91
2022-08-03T08:05:50.128Z,48.80
2022-08-03T08:08:17.356Z,50.41
2022-08-03T08:10:57.958Z,50.57
2022-08-03T08:13:28.221Z,47.83
2022-08-03T08:15:55.078Z,47.66
2022-08-03T08:18:21.826Z,49.52
2022-08-03T08:20:48.517Z,47.19
2022-08-03T08:23:42.670Z,47.63
2022-08-03T08:26:02.232Z,48.84
2022-08-03T08:28:32.523Z,46.05
2022-08-03T08:31:07.906Z,47.37
2022-08-03T08:34:03.279Z,46.42
2022-08-03T08:36:26.161Z,43.63
2022-08-03T08:38:57.930Z,46.83
2022-08-03T08:41:32.327Z,44.72
2022-08-03T08:44:00.200Z,46.38
2022-08-03T08:46:31.188Z,45.74
2022-08-03T08:49:00.163Z,44.83
2022-08-03T08:51:50.938Z,43.19
2022-08-03T08:54:26.406Z,44.13
2022-08-03T08:56:57.107Z,42.63
2022-08-03T08:59:48.786Z,44.19
2022-08-03T09:02:15.259Z,43.34
2022-08-03T09:04:42.494Z,43.14
2022-08-03T09:07:20.115Z,44.14
2022-08-03T09:10:01.315Z,42.60
2022-08-03T09:12:47.776Z,43.03
2022-08-03T09:15:33.104Z,41.77
2022-08-03T09:18:02.576Z,41.79
2022-08-03T09:20:34.340Z,40.81
2022-08-03T09:23:59.140Z,42.62
2022-08-03T09:25:59.835Z,41.72
2022-08-03T09:28:57.939Z,40.07
2022-08-03T09:31:49.342Z,40.10
2022-08-03T09:34:18.212Z,38.84
2022-08-03T09:36:54.128Z,38.70
2022-08-03T09:39:40.640Z,38.95
2022-08-03T09:42:23.721Z,37.57
2022-08-03T09:44:53.593Z,37.69
2022-08-03T09:47:45.139Z,38.36
2022-08-03T09:50:12.885Z,37.05
2022-08-03T09:52:49.953Z,38.76
2022-08-03T09:56:33.621Z,35.22
2022-08-03T09:58:11.822Z,36.90
2022-08-03T10:01:07.484Z,36.43
2022-08-03T10:04:03.867Z,35.82
2022-08-03T10:06:32.335Z,35.12
2022-08-03T10:09:16.256Z,34.76
2022-08-03T10:11:48.678Z,33.78
2022-08-03T10:14:21.274Z,35.67
2022-08-03T10:16:50.066Z,34.00
2022-08-03T10:19:17.723Z,33.20
2022-08-03T10:22:01.178Z,31.98
2022-08-03T10:24:30.973Z,29.56
2022-08-03T10:27:04.250Z,30.25
2022-08-03T10:29:42.231Z,30.19
2022-08-03T10:32:58.981Z,30.20
2022-08-03T10:35:27.260Z,32.54
2022-08-03T10:38:09.304Z,31.48
2022-08-03T10:40:58.649Z,29.38
2022-08-03T10:43:41.150Z,29.51
2022-08-03T10:46:08.635Z,30.70
2022-08-03T10:48:37.960Z,31.03
2022-08-03T10:51:06.755Z,30.92
2022-08-03T10:53:54.170Z,29.11
2022-08-03T10:56:52.756Z,29.63
2022-08-03T10:59:46.226Z,31.15
2022-08-03T11:02:15.478Z,30.59
2022-08-03T11:04:44.841Z,31.96
2022-08-03T11:07:22.923Z,28.45
2022-08-03T11:09:59.518Z,30.41
2022-08-03T11:12:33.921Z,27.67
2022-08-03T11:15:06.346Z,27.81
2022-08-03T11:17:46.397Z,30.01
2022-08-03T11:20:52.417Z,28.75
2022-08-03T11:24:04.942Z,28.51
2022-08-03T11:26:34.520Z,29.30
2022-08-03T11:29:31.080Z,27.90
2022-08-03T11:31:58.141Z,28.34
2022-08-03T11:34:25.701Z,27.29
2022-08-03T11:37:27.509Z,27.29
2022-08-03T11:39:58.301Z,27.11
2022-08-03T11:42:25.535Z,27.39
2022-08-03T11:44:57.880Z,28.03
2022-08-03T11:47:27.619Z,27.03
2022-08-03T11:50:02.232Z,26.79
2022-08-03T11:52:40.986Z,27.00
2022-08-03T11:55:16.531Z,27.16
2022-08-03T11:59:17.241Z,24.83
2022-08-03T12:00:33.623Z,26.63
2022-08-03T12:03:07.210Z,23.75
2022-08-03T12:05:47.951Z,25.12
2022-08-03T12:08:41.283Z,25.67
2022-08-03T12:11:15.132Z,23.37
2022-08-03T12:14:49.770Z,24.12
2022-08-03T12:16:36.011Z,24.53
2022-08-03T12:19:07.016Z,24.69
2022-08-03T12:21:35.364Z,23.36
2022-08-03T12:24:10.028Z,23.18
2022-08-03T12:26:59.362Z,22.82
2022-08-03T12:29:26.819Z,23.28
2022-08-03T12:31:53.756Z,23.32
2022-08-03T12:34:20.928Z,24.05
2022-08-03T12:36:57.006Z,23.72
2022-08-03T12:39:27.861Z,23.50
2022-08-03T12:41:56.570Z,23.21
2022-08-03T12:44:32.857Z,24.98
2022-08-03T12:47:03.521Z,24.49
2022-08-03T12:49:54.550Z,23.68
2022-08-03T12:52:23.139Z,22.80
2022-08-03T12:54:59.993Z,23.35
2022-08-03T12:57:41.509Z,23.18
2022-08-03T13:00:28.730Z,23.05
2022-08-03T13:05:55.182Z,22.86
2022-08-03T13:08:25.437Z,26.85
2022-08-03T13:10:54.953Z,26.18
2022-08-03T13:13:40.932Z,23.83
2022-08-03T13:16:07.784Z,23.39
2022-08-03T13:18:34.537Z,22.50
2022-08-03T13:21:02.355Z,21.34
2022-08-03T13:23:29.172Z,21.99
2022-08-03T13:25:58.430Z,21.61
2022-08-03T13:28:25.157Z,19.17
2022-08-03T13:30:55.129Z,20.27
2022-08-03T13:33:22.017Z,17.92
2022-08-03T13:35:50.877Z,16.54
2022-08-03T13:38:21.630Z,16.56
2022-08-03T13:40:53.760Z,17.86
2022-08-03T13:43:22.054Z,18.68
2022-08-03T13:45:52.404Z,20.08
2022-08-03T13:48:36.183Z,19.67
2022-08-03T13:51:11.580Z,21.99
2022-08-03T13:53:50.590Z,20.48
2022-08-03T13:56:17.354Z,21.65
2022-08-03T13:58:44.455Z,20.44
2022-08-03T14:01:11.508Z,22.33
2022-08-03T14:03:39.402Z,19.42
2022-08-03T14:06:06.251Z,21.94
2022-08-03T14:08:33.212Z,20.46
2022-08-03T14:10:59.883Z,19.28
2022-08-03T14:13:26.655Z,17.57
2022-08-03T14:15:53.483Z,16.63
2022-08-03T14:18:29.093Z,16.11
2022-08-03T14:21:05.970Z,15.93
2022-08-03T14:23:34.490Z,16.68
2022-08-03T14:26:01.155Z,19.37
2022-08-03T14:28:28.665Z,21.09
2022-08-03T14:30:56.379Z,19.47
2022-08-03T14:33:23.712Z,18.61
2022-08-03T14:35:55.112Z,19.22
2022-08-03T14:38:22.709Z,17.69
2022-08-03T14:40:50.173Z,17.74
2022-08-03T14:43:18.099Z,17.88
2022-08-03T14:45:44.991Z,20.30
2022-08-03T14:50:10.490Z,17.45
2022-08-03T14:50:59.240Z,17.08
2022-08-03T14:53:25.923Z,17.92
2022-08-03T14:55:53.355Z,18.88
2022-08-03T14:58:25.356Z,18.25
2022-08-03T15:00:54.352Z,18.01
2022-08-03T15:03:24.710Z,18.93
2022-08-03T15:05:56.813Z,18.25
2022-08-03T15:08:26.037Z,20.60
2022-08-03T15:10:54.738Z,20.31
2022-08-03T15:13:22.363Z,21.47
2022-08-03T15:15:50.129Z,25.60
2022-08-03T15:18:16.891Z,20.06
2022-08-03T15:20:45.901Z,22.00
2022-08-03T15:23:15.516Z,22.64
2022-08-03T15:26:29.636Z,19.77
2022-08-03T15:28:32.307Z,21.55
2022-08-03T15:31:01.925Z,22.05
2022-08-03T15:33:30.434Z,23.25
2022-08-03T15:35:57.416Z,22.68
2022-08-03T15:38:26.250Z,23.05
2022-08-03T15:40:56.928Z,23.83
2022-08-03T15:43:24.664Z,22.52
2022-08-03T15:46:26.489Z,22.24
2022-08-03T15:48:39.444Z,22.61
2022-08-03T15:51:08.320Z,23.11
2022-08-03T15:53:35.525Z,23.42
2022-08-03T15:56:09.401Z,22.89
2022-08-03T15:59:09.293Z,22.93
2022-08-03T16:01:26.774Z,23.90
2022-08-03T16:03:53.564Z,25.58
2022-08-03T16:06:29.811Z,23.33
2022-08-03T16:09:23.775Z,25.18
2022-08-03T16:11:56.814Z,22.77
2022-08-03T16:14:34.467Z,25.65
2022-08-03T16:17:03.100Z,23.61
2022-08-03T16:19:29.783Z,23.17
2022-08-03T16:21:56.499Z,23.30
2022-08-03T16:24:28.125Z,29.92
2022-08-03T16:26:56.331Z,24.44
2022-08-03T16:29:23.594Z,25.63
2022-08-03T16:31:52.159Z,25.14
2022-08-03T16:34:19.621Z,28.44
2022-08-03T16:36:46.297Z,27.20
2022-08-03T16:39:15.525Z,23.29
2022-08-03T16:41:53.976Z,22.59
2022-08-03T16:44:30.906Z,22.11
2022-08-03T16:46:59.682Z,24.86
2022-08-03T16:49:54.429Z,22.68
2022-08-03T16:52:13.993Z,21.81
2022-08-03T16:54:43.970Z,24.66
2022-08-03T16:57:29.780Z,22.46
2022-08-03T17:00:05.961Z,22.29
2022-08-03T17:02:32.887Z,23.54
2022-08-03T17:04:59.775Z,28.21
2022-08-03T17:07:26.502Z,22.90
2022-08-03T17:10:00.143Z,25.44
2022-08-03T17:12:33.625Z,27.50
2022-08-03T17:15:01.954Z,28.85
2022-08-03T17:17:37.562Z,27.12
2022-08-03T17:20:15.720Z,25.09
2022-08-03T17:23:14.524Z,22.46
2022-08-03T17:26:02.194Z,24.78
2022-08-03T17:28:52.032Z,22.08
2022-08-03T17:31:31.537Z,25.01
2022-08-03T17:34:04.549Z,28.60
2022-08-03T17:37:02.076Z,24.46
2022-08-03T17:39:41.846Z,25.70
2022-08-03T17:42:31.631Z,26.97
2022-08-03T17:45:03.420Z,26.29
2022-08-03T17:47:42.248Z,25.29
2022-08-03T17:50:28.011Z,27.53
2022-08-03T17:53:14.297Z,26.10
2022-08-03T17:55:57.652Z,27.89
2022-08-03T17:58:52.769Z,27.51
2022-08-03T18:02:03.401Z,28.42
2022-08-03T18:04:55.206Z,28.70
2022-08-03T18:07:40.920Z,31.21
2022-08-03T18:10:11.218Z,28.23
2022-08-03T18:12:57.916Z,29.26
2022-08-03T18:15:39.315Z,32.61
2022-08-03T18:18:11.012Z,29.52
2022-08-03T18:20:42.072Z,31.77
2022-08-03T18:26:10.727Z,29.56
2022-08-03T18:28:39.793Z,31.08
2022-08-03T18:31:12.725Z,29.89
2022-08-03T18:34:16.593Z,31.03
2022-08-03T18:36:49.612Z,31.09
2022-08-03T18:39:19.718Z,29.38
2022-08-03T18:41:46.909Z,29.55
2022-08-03T18:44:37.435Z,31.20
2022-08-03T18:47:50.640Z,30.47
2022-08-03T18:50:35.600Z,31.72
2022-08-03T18:54:03.192Z,31.42
2022-08-03T18:56:47.993Z,31.24
2022-08-03T18:59:53.522Z,33.44
2022-08-03T19:02:39.751Z,31.36
2022-08-03T19:05:10.906Z,31.31
2022-08-03T19:07:45.673Z,30.81
2022-08-03T19:10:32.215Z,31.35
2022-08-03T19:13:36.409Z,31.91
2022-08-03T19:16:08.585Z,32.04
2022-08-03T19:18:38.807Z,30.84
2022-08-03T19:21:12.728Z,30.30
2022-08-03T19:23:46.193Z,30.50
2022-08-03T19:26:29.978Z,31.92
2022-08-03T19:28:59.591Z,33.42
2022-08-03T19:31:30.976Z,34.84
2022-08-03T19:34:03.831Z,32.72
2022-08-03T19:36:40.500Z,32.59
2022-08-03T19:39:12.620Z,33.05
2022-08-03T19:41:42.010Z,33.22
2022-08-03T19:44:22.142Z,33.21
2022-08-03T19:46:55.305Z,34.23
2022-08-03T19:49:57.699Z,34.10
2022-08-03T19:52:24.185Z,33.85
2022-08-03T19:54:56.758Z,34.10
2022-08-03T19:57:27.283Z,33.63
2022-08-03T19:59:56.498Z,34.30
2022-08-03T20:02:26.015Z,33.92
2022-08-03T20:04:57.047Z,34.38
2022-08-03T20:07:26.258Z,34.39
2022-08-03T20:09:56.707Z,35.00
2022-08-03T20:12:28.573Z,35.90
2022-08-03T20:14:57.825Z,36.36
2022-08-03T20:17:53.984Z,36.53
2022-08-03T20:20:18.550Z,35.26
2022-08-03T20:22:52.640Z,35.34
2022-08-03T20:25:38.089Z,35.67
2022-08-03T20:28:29.026Z,37.11
2022-08-03T20:30:57.102Z,37.61
2022-08-03T20:33:27.866Z,37.08
2022-08-03T20:36:11.588Z,37.80
2022-08-03T20:38:47.112Z,37.94
2022-08-03T20:41:18.580Z,38.96
2022-08-03T20:43:49.364Z,38.67
2022-08-03T20:46:29.517Z,38.86
2022-08-03T20:49:08.717Z,39.04
2022-08-03T20:51:50.279Z,38.19
2022-08-03T20:54:30.992Z,37.98
2022-08-03T20:57:03.904Z,37.49
2022-08-03T20:59:47.136Z,37.73
2022-08-03T21:02:19.818Z,38.26
2022-08-03T21:05:03.331Z,38.76
2022-08-03T21:08:05.813Z,40.66
2022-08-03T21:10:42.051Z,41.27
2022-08-03T21:13:04.918Z,30.80
2022-08-03T21:13:39.553Z,40.99
2022-08-03T21:16:15.327Z,40.75
2022-08-03T21:18:50.757Z,41.83
2022-08-03T21:21:24.509Z,41.33
2022-08-03T21:23:55.574Z,43.08
2022-08-03T21:26:26.121Z,42.30
2022-08-03T21:28:55.954Z,42.09
2022-08-03T21:31:26.747Z,44.10
2022-08-03T21:34:04.908Z,43.65
2022-08-03T21:36:36.157Z,44.18
2022-08-03T21:39:10.330Z,43.34
2022-08-03T21:41:39.957Z,43.21
2022-08-03T21:44:09.754Z,43.91
2022-08-03T21:46:42.001Z,43.30
2022-08-03T21:50:04.979Z,43.51
2022-08-03T21:52:07.020Z,44.09
2022-08-03T21:54:46.402Z,43.35
2022-08-03T21:57:25.793Z,42.89
2022-08-03T22:00:03.955Z,42.68
2022-08-03T22:02:32.342Z,41.83
2022-08-03T22:05:00.011Z,42.50
2022-08-03T22:07:31.721Z,42.22
2022-08-03T22:10:07.220Z,42.99
2022-08-03T22:12:36.422Z,42.29
2022-08-03T22:15:09.613Z,41.78
2022-08-03T22:17:54.983Z,41.43
2022-08-03T22:20:28.869Z,41.56
2022-08-03T22:23:04.587Z,41.44
2022-08-03T22:25:37.598Z,41.84
2022-08-03T22:28:16.305Z,42.08
2022-08-03T22:30:49.170Z,43.66
2022-08-03T22:33:19.172Z,43.09
2022-08-03T22:35:57.477Z,43.48
2022-08-03T22:38:26.592Z,42.94
2022-08-03T22:40:58.421Z,44.45
2022-08-03T22:43:28.005Z,43.95
2022-08-03T22:46:09.776Z,44.69
2022-08-03T22:48:41.024Z,44.23
2022-08-03T22:51:08.826Z,44.60
2022-08-03T22:53:39.979Z,45.15
2022-08-03T22:56:10.567Z,44.44
2022-08-03T22:58:37.207Z,43.85
2022-08-03T23:01:11.227Z,45.26
2022-08-03T23:03:59.902Z,45.83
2022-08-03T23:06:35.711Z,44.79
2022-08-03T23:09:13.944Z,45.37
2022-08-03T23:12:03.180Z,44.86
2022-08-03T23:14:37.782Z,45.83
2022-08-03T23:17:08.172Z,45.50
2022-08-03T23:19:44.803Z,45.49
2022-08-03T23:22:28.623Z,46.31
2022-08-03T23:25:01.462Z,45.56
2022-08-03T23:27:30.757Z,46.40
2022-08-03T23:30:03.951Z,45.89
2022-08-03T23:32:36.206Z,43.79
2022-08-03T23:35:28.646Z,46.79
2022-08-03T23:38:22.114Z,45.71
2022-08-03T23:41:01.857Z,46.27
2022-08-03T23:43:52.191Z,46.99
2022-08-03T23:46:22.528Z,46.50
2022-08-03T23:48:56.641Z,45.08
2022-08-03T23:51:41.227Z,45.86
2022-08-03T23:54:36.404Z,45.89
2022-08-03T23:57:42.708Z,47.37
